createdAt,value
2023-03-26T00:03:41.575Z,23.27
2023-03-26T00:08:46.096Z,15.20
2023-03-26T00:13:48.862Z,14.13
2023-03-26T00:18:52.165Z,15.68
2023-03-26T00:23:56.521Z,15.52
2023-03-26T00:29:01.343Z,9.10
2023-03-26T00:34:05.862Z,7.93
2023-03-26T00:39:08.111Z,5.82
2023-03-26T00:44:11.193Z,10.38
2023-03-26T00:49:15.123Z,8.82
2023-03-26T00:54:17.765Z,8.45
2023-03-26T00:59:23.494Z,5.97
2023-03-26T01:04:31.910Z,6.32
2023-03-26T01:09:37.470Z,7.82
2023-03-26T01:14:40.112Z,5.43
2023-03-26T01:19:48.510Z,4.85
2023-03-26T01:24:54.315Z,6.18
2023-03-26T01:30:18.884Z,7.32
2023-03-26T01:35:35.332Z,4.20
2023-03-26T01:41:16.386Z,3.78
2023-03-26T01:46:21.328Z,5.40
2023-03-26T01:51:36.422Z,4.70
2023-03-26T01:57:10.144Z,3.05
2023-03-26T02:02:17.522Z,6.97
2023-03-26T02:07:38.434Z,4.93
2023-03-26T02:12:43.286Z,4.85
2023-03-26T02:17:46.411Z,2.40
2023-03-26T02:22:49.002Z,2.97
2023-03-26T02:27:53.207Z,2.20
2023-03-26T02:32:59.550Z,2.47
2023-03-26T02:38:02.295Z,3.70
2023-03-26T02:43:04.464Z,7.90
2023-03-26T02:48:06.740Z,2.95
2023-03-26T02:53:09.273Z,2.20
2023-03-26T02:58:12.576Z,2.70
2023-03-26T03:03:17.527Z,3.67
2023-03-26T03:08:21.482Z,5.38
2023-03-26T03:13:24.303Z,2.88
2023-03-26T03:18:26.543Z,2.35
2023-03-26T03:23:29.094Z,2.40
2023-03-26T03:28:31.269Z,2.50
2023-03-26T03:33:33.605Z,2.50
2023-03-26T03:38:35.818Z,4.22
2023-03-26T03:43:37.961Z,4.95
2023-03-26T03:48:42.298Z,3.65
2023-03-26T03:53:46.604Z,6.13
2023-03-26T03:58:48.760Z,1.77
2023-03-26T04:03:51.084Z,4.53
2023-03-26T04:08:53.495Z,5.75
2023-03-26T04:13:55.669Z,19.27
2023-03-26T04:18:58.613Z,5.85
2023-03-26T04:24:02.943Z,9.20
2023-03-26T04:29:12.347Z,5.80
2023-03-26T04:34:24.499Z,11.00
2023-03-26T04:39:29.541Z,13.02
2023-03-26T04:44:32.229Z,15.13
2023-03-26T04:49:34.474Z,12.15
2023-03-26T04:54:36.823Z,13.90
2023-03-26T04:59:41.804Z,13.77
2023-03-26T05:04:46.189Z,11.05
2023-03-26T05:09:48.847Z,13.35
2023-03-26T05:14:51.032Z,11.38
2023-03-26T05:19:53.642Z,16.45
2023-03-26T05:24:56.671Z,13.30
2023-03-26T05:30:05.561Z,12.93
2023-03-26T05:35:08.575Z,16.70
2023-03-26T05:40:12.629Z,13.52
2023-03-26T05:45:16.513Z,12.98
2023-03-26T05:50:18.935Z,12.75
2023-03-26T05:55:22.318Z,12.35
2023-03-26T06:00:25.495Z,15.40
2023-03-26T06:05:32.942Z,11.20
2023-03-26T06:10:39.093Z,11.32
2023-03-26T06:15:41.711Z,9.57
2023-03-26T06:20:44.132Z,12.15
2023-03-26T06:25:46.993Z,9.93
2023-03-26T06:30:49.591Z,13.52
2023-03-26T06:35:51.926Z,9.75
2023-03-26T06:40:54.448Z,7.85
2023-03-26T06:45:57.003Z,11.23
2023-03-26T06:50:59.609Z,10.00
2023-03-26T06:56:03.234Z,11.32
2023-03-26T07:01:05.938Z,7.93
2023-03-26T07:06:08.832Z,10.20
2023-03-26T07:11:11.521Z,4.60
2023-03-26T07:16:15.082Z,5.60
2023-03-26T07:21:18.960Z,5.03
2023-03-26T07:26:52.169Z,7.13
2023-03-26T07:32:11.147Z,17.40
2023-03-26T07:37:44.360Z,7.57
2023-03-26T07:42:52.441Z,7.20
2023-03-26T07:47:57.343Z,12.85
2023-03-26T07:52:59.907Z,7.40
2023-03-26T07:58:38.775Z,11.27
2023-03-26T08:04:23.873Z,9.20
2023-03-26T08:09:27.312Z,5.90
2023-03-26T08:14:38.128Z,6.03
2023-03-26T08:19:55.526Z,4.00
2023-03-26T08:25:27.970Z,4.07
2023-03-26T08:30:31.322Z,3.55
2023-03-26T08:35:35.560Z,4.53
2023-03-26T08:41:11.513Z,3.90
2023-03-26T08:46:38.655Z,4.85
2023-03-26T08:52:06.140Z,5.68
2023-03-26T08:57:29.177Z,3.58
2023-03-26T09:02:40.364Z,5.63
2023-03-26T09:07:58.655Z,3.58
2023-03-26T09:13:40.423Z,2.38
2023-03-26T09:19:07.395Z,2.42
2023-03-26T09:24:33.840Z,3.75
2023-03-26T09:30:21.839Z,2.50
2023-03-26T09:35:29.953Z,4.50
2023-03-26T09:40:44.312Z,4.85
2023-03-26T09:46:05.388Z,2.40
2023-03-26T09:51:20.783Z,5.85
2023-03-26T09:56:22.897Z,3.97
2023-03-26T10:01:38.199Z,6.13
2023-03-26T10:07:37.566Z,3.30
2023-03-26T10:12:44.746Z,3.55
2023-03-26T10:18:27.168Z,10.55
2023-03-26T10:24:16.730Z,3.38
2023-03-26T10:29:40.099Z,2.45
2023-03-26T10:35:10.801Z,4.22
2023-03-26T10:40:25.759Z,3.65
2023-03-26T10:45:47.481Z,5.55
2023-03-26T10:51:20.733Z,4.85
2023-03-26T10:56:23.729Z,3.67
2023-03-26T11:01:34.877Z,7.03
2023-03-26T11:06:53.086Z,2.95
2023-03-26T11:12:26.777Z,3.97
2023-03-26T11:17:40.366Z,3.10
2023-03-26T11:23:20.226Z,7.00
2023-03-26T11:29:03.650Z,4.88
2023-03-26T11:34:19.307Z,4.63
2023-03-26T11:39:26.471Z,2.80
2023-03-26T11:44:34.716Z,5.45
2023-03-26T11:49:38.517Z,3.40
2023-03-26T11:54:40.726Z,2.85
2023-03-26T11:59:57.563Z,2.53
2023-03-26T12:05:21.756Z,3.22
2023-03-26T12:10:35.514Z,2.40
2023-03-26T12:15:44.391Z,3.65
2023-03-26T12:20:46.627Z,2.25
2023-03-26T12:26:12.456Z,2.85
2023-03-26T12:31:18.511Z,1.63
2023-03-26T12:36:29.548Z,4.55
2023-03-26T12:43:01.492Z,2.00
2023-03-26T12:47:59.508Z,2.13
2023-03-26T12:53:03.247Z,3.97
2023-03-26T12:58:29.546Z,2.42
2023-03-26T13:04:18.677Z,2.90
2023-03-26T13:09:43.972Z,4.17
2023-03-26T13:15:14.860Z,3.85
2023-03-26T13:20:33.533Z,2.75
2023-03-26T13:26:14.636Z,3.20
2023-03-26T13:31:28.302Z,6.35
2023-03-26T13:36:30.589Z,1.10
2023-03-26T13:41:56.569Z,1.40
2023-03-26T13:47:11.218Z,1.77
2023-03-26T13:52:30.977Z,3.40
2023-03-26T13:57:39.770Z,1.38
2023-03-26T14:02:44.978Z,2.33
2023-03-26T14:08:00.607Z,1.02
2023-03-26T14:13:02.736Z,6.05
2023-03-26T14:18:29.731Z,1.30
2023-03-26T14:23:54.493Z,1.60
2023-03-26T14:29:06.023Z,1.55
2023-03-26T14:34:13.728Z,1.20
2023-03-26T14:39:23.902Z,3.58
2023-03-26T14:45:01.880Z,2.92
2023-03-26T14:50:26.971Z,4.07
2023-03-26T14:56:00.097Z,2.08
2023-03-26T15:01:21.234Z,3.90
2023-03-26T15:07:01.815Z,5.30
2023-03-26T15:12:18.719Z,3.05
2023-03-26T15:17:32.791Z,2.42
2023-03-26T15:22:56.502Z,2.35
2023-03-26T15:28:33.945Z,4.60
2023-03-26T15:33:55.360Z,5.25
2023-03-26T15:39:30.407Z,7.30
2023-03-26T15:44:53.755Z,2.55
2023-03-26T15:50:08.542Z,3.47
2023-03-26T15:55:37.362Z,4.38
2023-03-26T16:00:57.566Z,4.45
2023-03-26T16:06:16.209Z,4.18
2023-03-26T16:11:57.002Z,3.95
2023-03-26T16:17:00.303Z,4.90
2023-03-26T16:22:15.671Z,2.35
2023-03-26T16:27:30.648Z,4.93
2023-03-26T16:32:41.089Z,3.22
2023-03-26T16:37:50.390Z,2.65
2023-03-26T16:43:17.399Z,6.97
2023-03-26T16:48:42.356Z,4.18
2023-03-26T16:53:57.900Z,8.05
2023-03-26T16:59:09.577Z,4.43
2023-03-26T17:04:21.015Z,5.05
2023-03-26T17:09:40.432Z,7.15
2023-03-26T17:15:06.239Z,4.18
2023-03-26T17:20:20.295Z,5.25
2023-03-26T17:25:26.224Z,3.50
2023-03-26T17:30:56.496Z,5.57
2023-03-26T17:36:23.016Z,4.53
2023-03-26T17:41:52.001Z,4.30
2023-03-26T17:46:57.374Z,4.33
2023-03-26T17:52:25.738Z,4.15
2023-03-26T17:57:56.862Z,3.28
2023-03-26T18:03:23.582Z,9.25
2023-03-26T18:08:41.180Z,7.45
2023-03-26T18:14:18.145Z,8.45
2023-03-26T18:19:23.359Z,7.07
2023-03-26T18:24:40.754Z,12.63
2023-03-26T18:29:56.950Z,6.32
2023-03-26T18:35:22.304Z,7.30
2023-03-26T18:40:28.157Z,6.32
2023-03-26T18:45:38.059Z,5.70
2023-03-26T18:50:43.121Z,5.90
2023-03-26T18:55:45.713Z,5.68
2023-03-26T19:00:50.218Z,4.60
2023-03-26T19:05:55.024Z,7.25
2023-03-26T19:10:57.880Z,11.82
2023-03-26T19:16:04.480Z,4.28
2023-03-26T19:21:08.294Z,7.70
2023-03-26T19:26:11.883Z,5.90
2023-03-26T19:31:16.717Z,4.03
2023-03-26T19:36:24.812Z,4.50
2023-03-26T19:41:37.010Z,7.38
2023-03-26T19:46:52.855Z,6.50
2023-03-26T19:52:26.694Z,6.70
2023-03-26T19:57:35.126Z,7.72
2023-03-26T20:02:37.529Z,4.53
2023-03-26T20:07:39.798Z,6.57
2023-03-26T20:12:43.317Z,5.38
2023-03-26T20:17:47.134Z,4.80
2023-03-26T20:22:49.895Z,4.82
2023-03-26T20:27:53.539Z,9.77
2023-03-26T20:33:12.102Z,8.40
2023-03-26T20:38:15.997Z,6.00
2023-03-26T20:43:22.203Z,7.28
2023-03-26T20:48:26.886Z,5.22
2023-03-26T20:53:30.768Z,5.88
2023-03-26T20:58:33.742Z,6.78
2023-03-26T21:03:36.251Z,11.68
2023-03-26T21:08:38.797Z,10.63
2023-03-26T21:13:47.902Z,11.38
2023-03-26T21:18:50.312Z,11.25
2023-03-26T21:24:10.262Z,13.70
2023-03-26T21:29:13.068Z,18.63
2023-03-26T21:34:15.914Z,9.18
2023-03-26T21:39:18.633Z,22.67
2023-03-26T21:44:21.756Z,12.70
2023-03-26T21:49:24.205Z,17.50
2023-03-26T21:54:29.308Z,17.90
2023-03-26T21:59:37.241Z,18.02
2023-03-26T22:04:39.301Z,17.77
2023-03-26T22:09:42.404Z,8.57
2023-03-26T22:14:45.239Z,10.77
2023-03-26T22:19:47.513Z,18.45
2023-03-26T22:24:49.643Z,24.17
2023-03-26T22:29:51.797Z,20.70
2023-03-26T22:34:53.880Z,14.27
2023-03-26T22:39:56.754Z,18.17
2023-03-26T22:44:58.898Z,9.95
2023-03-26T22:50:02.326Z,11.30
2023-03-26T22:55:05.611Z,11.40
2023-03-26T23:00:16.437Z,9.35
2023-03-26T23:05:18.871Z,9.95
2023-03-26T23:10:22.110Z,11.68
2023-03-26T23:15:26.300Z,11.60
2023-03-26T23:20:29.764Z,10.32
2023-03-26T23:25:32.828Z,8.98
2023-03-26T23:30:35.992Z,6.90
2023-03-26T23:35:38.248Z,6.93
2023-03-26T23:40:43.195Z,13.55
2023-03-26T23:45:47.450Z,8.75
2023-03-26T23:50:50.846Z,12.90
2023-03-26T23:56:00.040Z,7.57
